N5JA HTDA-FMCZ
Flight info
| Callsign | N5JA |
|---|---|
| Flight time | 1h 17m |
| Altitude | 35000 |
| Route | DUDNA1D KISIR DCT HAI |
| Aircraft | B737/M-SDE2E3FGHIRWXY/LB1 |
Departure
| Time | 2026-04-14 20:42 |
|---|---|
| Airport | Julius Nyerere International Airport (HTDA) |
Arrival
| Time | 2026-04-14 21:59 |
|---|---|
| Airport | Dzaoudzi Pamandzi International Airport (FMCZ) |
| Time | Latitude | Longitude | Altitude | Speed | Heading |
|---|---|---|---|---|---|
| 2026-04-14 20:00 | -6.86112 | 39.21498 | 234 ft | 0 kts | 225° |
| 2026-04-14 20:38 | -6.86112 | 39.21497 | 166 ft | 1 kts | 225° |
| 2026-04-14 20:38 | -6.86127 | 39.21485 | 174 ft | 5 kts | 217° |
| 2026-04-14 20:38 | -6.86161 | 39.21493 | 174 ft | 6 kts | 129° |
| 2026-04-14 20:39 | -6.86188 | 39.21525 | 174 ft | 6 kts | 134° |
| 2026-04-14 20:39 | -6.86218 | 39.21553 | 174 ft | 6 kts | 139° |
| 2026-04-14 20:39 | -6.86254 | 39.21571 | 174 ft | 6 kts | 169° |
| 2026-04-14 20:39 | -6.86292 | 39.21580 | 174 ft | 6 kts | 153° |
| 2026-04-14 20:40 | -6.86316 | 39.21611 | 173 ft | 6 kts | 116° |
| 2026-04-14 20:40 | -6.86337 | 39.21646 | 172 ft | 6 kts | 126° |
| 2026-04-14 20:40 | -6.86366 | 39.21675 | 172 ft | 6 kts | 146° |
| 2026-04-14 20:40 | -6.86403 | 39.21665 | 172 ft | 6 kts | 219° |
| 2026-04-14 20:41 | -6.86433 | 39.21636 | 173 ft | 8 kts | 224° |
| 2026-04-14 20:41 | -6.86635 | 39.21436 | 176 ft | 83 kts | 224° |
| 2026-04-14 20:41 | -6.87244 | 39.20832 | 178 ft | 159 kts | 225° |
| 2026-04-14 20:41 | -6.88117 | 39.19932 | 639 ft | 190 kts | 222° |
| 2026-04-14 20:42 | -6.89059 | 39.18980 | 1642 ft | 195 kts | 221° |
| 2026-04-14 20:42 | -6.90033 | 39.18002 | 2610 ft | 198 kts | 221° |
| 2026-04-14 20:42 | -6.92406 | 39.16465 | 4084 ft | 228 kts | 184° |
| 2026-04-14 20:43 | -6.94107 | 39.16456 | 4555 ft | 258 kts | 176° |
| 2026-04-14 20:43 | -6.95933 | 39.16516 | 5530 ft | 265 kts | 176° |
| 2026-04-14 20:43 | -6.97800 | 39.16557 | 6545 ft | 272 kts | 177° |
| 2026-04-14 20:43 | -6.99701 | 39.16574 | 7519 ft | 277 kts | 177° |
| 2026-04-14 20:44 | -7.01637 | 39.16571 | 7876 ft | 279 kts | 178° |
| 2026-04-14 20:44 | -7.03584 | 39.16553 | 7983 ft | 279 kts | 178° |
| 2026-04-14 20:44 | -7.05524 | 39.16524 | 7989 ft | 279 kts | 178° |
| 2026-04-14 20:44 | -7.07477 | 39.16492 | 7996 ft | 281 kts | 178° |
| 2026-04-14 20:45 | -7.09437 | 39.16456 | 7999 ft | 282 kts | 178° |
| 2026-04-14 20:45 | -7.11401 | 39.16418 | 8011 ft | 283 kts | 178° |
| 2026-04-14 20:45 | -7.13373 | 39.16379 | 7998 ft | 283 kts | 178° |
| 2026-04-14 20:45 | -7.15343 | 39.16339 | 8007 ft | 283 kts | 178° |
| 2026-04-14 20:46 | -7.17311 | 39.16299 | 8002 ft | 283 kts | 178° |
| 2026-04-14 20:46 | -7.19275 | 39.16259 | 7996 ft | 282 kts | 178° |
| 2026-04-14 20:46 | -7.21240 | 39.16203 | 8032 ft | 285 kts | 180° |
| 2026-04-14 20:46 | -7.23220 | 39.16104 | 8815 ft | 286 kts | 180° |
| 2026-04-14 20:47 | -7.25214 | 39.15995 | 9874 ft | 288 kts | 180° |
| 2026-04-14 20:47 | -7.27250 | 39.15884 | 10581 ft | 303 kts | 180° |
| 2026-04-14 20:47 | -7.29425 | 39.15770 | 10874 ft | 329 kts | 180° |
| 2026-04-14 20:47 | -7.31747 | 39.15646 | 11605 ft | 337 kts | 180° |
| 2026-04-14 20:48 | -7.34103 | 39.15520 | 12510 ft | 341 kts | 180° |
| 2026-04-14 20:48 | -7.36493 | 39.15392 | 13380 ft | 346 kts | 180° |
| 2026-04-14 20:48 | -7.38921 | 39.15264 | 14147 ft | 353 kts | 180° |
| 2026-04-14 20:48 | -7.41392 | 39.15133 | 14935 ft | 357 kts | 180° |
| 2026-04-14 20:49 | -7.43885 | 39.15001 | 15751 ft | 361 kts | 180° |
| 2026-04-14 20:49 | -7.46409 | 39.14869 | 16544 ft | 366 kts | 180° |
| 2026-04-14 20:49 | -7.48967 | 39.14735 | 17330 ft | 370 kts | 181° |
| 2026-04-14 20:49 | -7.51552 | 39.14732 | 18070 ft | 373 kts | 169° |
| 2026-04-14 20:50 | -7.53993 | 39.15587 | 18727 ft | 373 kts | 148° |
| 2026-04-14 20:50 | -7.56009 | 39.17218 | 19434 ft | 373 kts | 130° |
| 2026-04-14 20:50 | -7.57481 | 39.19379 | 20081 ft | 377 kts | 120° |
| 2026-04-14 20:50 | -7.58799 | 39.21688 | 20648 ft | 383 kts | 119° |
| 2026-04-14 20:51 | -7.60090 | 39.24043 | 21342 ft | 385 kts | 118° |
| 2026-04-14 20:51 | -7.61389 | 39.26431 | 21933 ft | 390 kts | 119° |
| 2026-04-14 20:51 | -7.62705 | 39.28836 | 22554 ft | 394 kts | 119° |
| 2026-04-14 20:51 | -7.64053 | 39.31279 | 23062 ft | 400 kts | 120° |
| 2026-04-14 20:52 | -7.65420 | 39.33736 | 23608 ft | 405 kts | 120° |
| 2026-04-14 20:52 | -7.66815 | 39.36233 | 24041 ft | 410 kts | 120° |
| 2026-04-14 20:52 | -7.68221 | 39.38740 | 24530 ft | 413 kts | 121° |
| 2026-04-14 20:52 | -7.69643 | 39.41273 | 24995 ft | 416 kts | 121° |
| 2026-04-14 20:53 | -7.71077 | 39.43824 | 25435 ft | 421 kts | 120° |
| 2026-04-14 20:53 | -7.72510 | 39.46373 | 25839 ft | 425 kts | 121° |
| 2026-04-14 20:53 | -7.73993 | 39.49013 | 26282 ft | 429 kts | 121° |
| 2026-04-14 20:53 | -7.75470 | 39.51642 | 26740 ft | 432 kts | 121° |
| 2026-04-14 20:54 | -7.76957 | 39.54289 | 27178 ft | 436 kts | 121° |
| 2026-04-14 20:54 | -7.78455 | 39.56959 | 27610 ft | 439 kts | 121° |
| 2026-04-14 20:54 | -7.79966 | 39.59652 | 28037 ft | 443 kts | 121° |
| 2026-04-14 20:54 | -7.81489 | 39.62365 | 28450 ft | 446 kts | 121° |
| 2026-04-14 20:55 | -7.83024 | 39.65101 | 28860 ft | 450 kts | 122° |
| 2026-04-14 20:55 | -7.84549 | 39.67819 | 29257 ft | 453 kts | 122° |
| 2026-04-14 20:55 | -7.86106 | 39.70596 | 29645 ft | 456 kts | 122° |
| 2026-04-14 20:55 | -7.87673 | 39.73390 | 30027 ft | 459 kts | 122° |
| 2026-04-14 20:56 | -7.89245 | 39.76195 | 30493 ft | 458 kts | 122° |
| 2026-04-14 20:56 | -7.90804 | 39.78978 | 31077 ft | 454 kts | 122° |
| 2026-04-14 20:56 | -7.92352 | 39.81744 | 31660 ft | 451 kts | 122° |
| 2026-04-14 20:56 | -7.93891 | 39.84492 | 32203 ft | 450 kts | 122° |
| 2026-04-14 20:57 | -7.95430 | 39.87239 | 32714 ft | 448 kts | 123° |
| 2026-04-14 20:57 | -7.96960 | 39.89970 | 33255 ft | 447 kts | 123° |
| 2026-04-14 20:57 | -7.98483 | 39.92692 | 33800 ft | 444 kts | 123° |
| 2026-04-14 20:57 | -8.00001 | 39.95402 | 34251 ft | 443 kts | 123° |
| 2026-04-14 20:58 | -8.01516 | 39.98109 | 34619 ft | 443 kts | 123° |
| 2026-04-14 20:58 | -8.03035 | 40.00822 | 34910 ft | 446 kts | 123° |
| 2026-04-14 20:58 | -8.04577 | 40.03574 | 34911 ft | 454 kts | 123° |
| 2026-04-14 20:59 | -8.07728 | 40.09202 | 34935 ft | 468 kts | 123° |
| 2026-04-14 20:59 | -8.10966 | 40.14996 | 34929 ft | 479 kts | 123° |
| 2026-04-14 21:00 | -8.14253 | 40.20883 | 34922 ft | 482 kts | 123° |
| 2026-04-14 21:00 | -8.17760 | 40.26618 | 34913 ft | 477 kts | 132° |
| 2026-04-14 21:01 | -8.22438 | 40.31275 | 34923 ft | 471 kts | 142° |
| 2026-04-14 21:01 | -8.27399 | 40.35592 | 34916 ft | 471 kts | 142° |
| 2026-04-14 21:02 | -8.32346 | 40.39921 | 34920 ft | 471 kts | 142° |
| 2026-04-14 21:02 | -8.37266 | 40.44278 | 34917 ft | 471 kts | 142° |
| 2026-04-14 21:03 | -8.42179 | 40.48653 | 34922 ft | 470 kts | 142° |
| 2026-04-14 21:03 | -8.47051 | 40.52998 | 34919 ft | 470 kts | 142° |
| 2026-04-14 21:04 | -8.51954 | 40.57370 | 34920 ft | 470 kts | 142° |
| 2026-04-14 21:04 | -8.56856 | 40.61741 | 34917 ft | 470 kts | 142° |
| 2026-04-14 21:05 | -8.61758 | 40.66113 | 34918 ft | 470 kts | 142° |
| 2026-04-14 21:05 | -8.66668 | 40.70494 | 34920 ft | 470 kts | 142° |
| 2026-04-14 21:06 | -8.71569 | 40.74869 | 34921 ft | 470 kts | 142° |
| 2026-04-14 21:06 | -8.76475 | 40.79249 | 34921 ft | 470 kts | 142° |
| 2026-04-14 21:07 | -8.81380 | 40.83631 | 34920 ft | 470 kts | 142° |
| 2026-04-14 21:07 | -8.85457 | 40.87273 | 34923 ft | 470 kts | 142° |
| 2026-04-14 21:08 | -8.90356 | 40.91652 | 34926 ft | 470 kts | 142° |
| 2026-04-14 21:08 | -8.95259 | 40.96036 | 34922 ft | 470 kts | 142° |
| 2026-04-14 21:09 | -9.00160 | 41.00420 | 34924 ft | 470 kts | 142° |
| 2026-04-14 21:09 | -9.05061 | 41.04806 | 34926 ft | 470 kts | 142° |
| 2026-04-14 21:10 | -9.09962 | 41.09193 | 34926 ft | 470 kts | 142° |
| 2026-04-14 21:10 | -9.14858 | 41.13578 | 34931 ft | 470 kts | 142° |
| 2026-04-14 21:11 | -9.19746 | 41.17957 | 34925 ft | 470 kts | 142° |
| 2026-04-14 21:11 | -9.24605 | 41.22311 | 34927 ft | 469 kts | 142° |
| 2026-04-14 21:12 | -9.29491 | 41.26692 | 34926 ft | 469 kts | 142° |
| 2026-04-14 21:12 | -9.34375 | 41.31072 | 34932 ft | 469 kts | 142° |
| 2026-04-14 21:13 | -9.39258 | 41.35454 | 34934 ft | 469 kts | 142° |
| 2026-04-14 21:13 | -9.44136 | 41.39833 | 34928 ft | 469 kts | 142° |
| 2026-04-14 21:14 | -9.51450 | 41.46401 | 34932 ft | 468 kts | 142° |
| 2026-04-14 21:14 | -9.56325 | 41.50781 | 34932 ft | 468 kts | 142° |
| 2026-04-14 21:15 | -9.61196 | 41.55159 | 34932 ft | 468 kts | 142° |
| 2026-04-14 21:15 | -9.66068 | 41.59540 | 34933 ft | 468 kts | 142° |
| 2026-04-14 21:16 | -9.70938 | 41.63921 | 34931 ft | 468 kts | 142° |
| 2026-04-14 21:16 | -9.75805 | 41.68302 | 34940 ft | 468 kts | 142° |
| 2026-04-14 21:17 | -9.80672 | 41.72684 | 34940 ft | 468 kts | 142° |
| 2026-04-14 21:17 | -9.85541 | 41.77068 | 34935 ft | 468 kts | 142° |
| 2026-04-14 21:18 | -9.90412 | 41.81458 | 34936 ft | 468 kts | 142° |
| 2026-04-14 21:18 | -9.95278 | 41.85844 | 34939 ft | 468 kts | 142° |
| 2026-04-14 21:19 | -10.00154 | 41.90241 | 34937 ft | 468 kts | 142° |
| 2026-04-14 21:19 | -10.05027 | 41.94637 | 34938 ft | 468 kts | 142° |
| 2026-04-14 21:20 | -10.09895 | 41.99031 | 34939 ft | 469 kts | 142° |
| 2026-04-14 21:20 | -10.14732 | 42.03399 | 34942 ft | 469 kts | 142° |
| 2026-04-14 21:21 | -10.19603 | 42.07799 | 34941 ft | 469 kts | 142° |
| 2026-04-14 21:21 | -10.24471 | 42.12198 | 34941 ft | 469 kts | 142° |
| 2026-04-14 21:22 | -10.29340 | 42.16600 | 34941 ft | 469 kts | 142° |
| 2026-04-14 21:22 | -10.34210 | 42.21005 | 34940 ft | 469 kts | 142° |
| 2026-04-14 21:23 | -10.39078 | 42.25410 | 34943 ft | 469 kts | 142° |
| 2026-04-14 21:23 | -10.43950 | 42.29821 | 34942 ft | 469 kts | 142° |
| 2026-04-14 21:24 | -10.48821 | 42.34232 | 34950 ft | 469 kts | 142° |
| 2026-04-14 21:24 | -10.53691 | 42.38644 | 34948 ft | 469 kts | 142° |
| 2026-04-14 21:25 | -10.58562 | 42.43060 | 34942 ft | 470 kts | 142° |
| 2026-04-14 21:25 | -10.63437 | 42.47480 | 34953 ft | 470 kts | 142° |
| 2026-04-14 21:26 | -10.68314 | 42.51905 | 34943 ft | 470 kts | 142° |
| 2026-04-14 21:26 | -10.73190 | 42.56332 | 34952 ft | 470 kts | 142° |
| 2026-04-14 21:27 | -10.78069 | 42.60762 | 34946 ft | 470 kts | 142° |
| 2026-04-14 21:27 | -10.82953 | 42.65199 | 34950 ft | 470 kts | 142° |
| 2026-04-14 21:28 | -10.87837 | 42.69638 | 34952 ft | 471 kts | 142° |
| 2026-04-14 21:28 | -10.92725 | 42.74083 | 34954 ft | 471 kts | 142° |
| 2026-04-14 21:29 | -10.97617 | 42.78534 | 34944 ft | 472 kts | 142° |
| 2026-04-14 21:29 | -11.02477 | 42.82957 | 34955 ft | 472 kts | 142° |
| 2026-04-14 21:30 | -11.07365 | 42.87409 | 34959 ft | 472 kts | 142° |
| 2026-04-14 21:30 | -11.12258 | 42.91867 | 34946 ft | 472 kts | 142° |
| 2026-04-14 21:31 | -11.17146 | 42.96322 | 34950 ft | 472 kts | 142° |
| 2026-04-14 21:31 | -11.22036 | 43.00781 | 34949 ft | 472 kts | 142° |
| 2026-04-14 21:32 | -11.26931 | 43.05247 | 34950 ft | 472 kts | 142° |
| 2026-04-14 21:32 | -11.31825 | 43.09714 | 34953 ft | 473 kts | 142° |
| 2026-04-14 21:33 | -11.36731 | 43.14195 | 34942 ft | 473 kts | 142° |
| 2026-04-14 21:33 | -11.41633 | 43.18674 | 34941 ft | 473 kts | 142° |
| 2026-04-14 21:34 | -11.46536 | 43.23158 | 34940 ft | 473 kts | 142° |
| 2026-04-14 21:34 | -11.51361 | 43.27752 | 34934 ft | 478 kts | 135° |
| 2026-04-14 21:35 | -11.55187 | 43.33351 | 34946 ft | 484 kts | 126° |
| 2026-04-14 21:35 | -11.58766 | 43.39173 | 34942 ft | 485 kts | 126° |
| 2026-04-14 21:36 | -11.62369 | 43.44984 | 34941 ft | 485 kts | 126° |
| 2026-04-14 21:36 | -11.66004 | 43.50793 | 34945 ft | 486 kts | 126° |
| 2026-04-14 21:37 | -11.69648 | 43.56600 | 34950 ft | 486 kts | 126° |
| 2026-04-14 21:37 | -11.73297 | 43.62417 | 34959 ft | 486 kts | 126° |
| 2026-04-14 21:38 | -11.76920 | 43.68200 | 34948 ft | 487 kts | 126° |
| 2026-04-14 21:38 | -11.80569 | 43.74028 | 34948 ft | 488 kts | 126° |
| 2026-04-14 21:39 | -11.84219 | 43.79863 | 34952 ft | 488 kts | 126° |
| 2026-04-14 21:39 | -11.87873 | 43.85706 | 34952 ft | 488 kts | 126° |
| 2026-04-14 21:40 | -11.91530 | 43.91558 | 34954 ft | 489 kts | 126° |
| 2026-04-14 21:40 | -11.95183 | 43.97407 | 34957 ft | 489 kts | 126° |
| 2026-04-14 21:41 | -11.97013 | 44.00338 | 34619 ft | 491 kts | 126° |
| 2026-04-14 21:41 | -11.98840 | 44.03266 | 33835 ft | 489 kts | 126° |
| 2026-04-14 21:41 | -12.00681 | 44.06214 | 32731 ft | 492 kts | 125° |
| 2026-04-14 21:41 | -12.02527 | 44.09173 | 31680 ft | 494 kts | 124° |
| 2026-04-14 21:42 | -12.04380 | 44.12144 | 30567 ft | 498 kts | 123° |
| 2026-04-14 21:42 | -12.06237 | 44.15124 | 29723 ft | 494 kts | 123° |
| 2026-04-14 21:42 | -12.08056 | 44.18045 | 28804 ft | 490 kts | 123° |
| 2026-04-14 21:42 | -12.09876 | 44.20969 | 27970 ft | 484 kts | 123° |
| 2026-04-14 21:43 | -12.11669 | 44.23850 | 27171 ft | 478 kts | 123° |
| 2026-04-14 21:43 | -12.13443 | 44.26699 | 26390 ft | 472 kts | 123° |
| 2026-04-14 21:43 | -12.15190 | 44.29508 | 25619 ft | 466 kts | 123° |
| 2026-04-14 21:43 | -12.16920 | 44.32288 | 24826 ft | 462 kts | 123° |
| 2026-04-14 21:44 | -12.18634 | 44.35045 | 24040 ft | 457 kts | 123° |
| 2026-04-14 21:44 | -12.20330 | 44.37771 | 23206 ft | 452 kts | 123° |
| 2026-04-14 21:44 | -12.22008 | 44.40470 | 22340 ft | 447 kts | 123° |
| 2026-04-14 21:44 | -12.23661 | 44.43128 | 21533 ft | 440 kts | 123° |
| 2026-04-14 21:45 | -12.25287 | 44.45745 | 20765 ft | 433 kts | 122° |
| 2026-04-14 21:45 | -12.26892 | 44.48327 | 20011 ft | 427 kts | 122° |
| 2026-04-14 21:45 | -12.28472 | 44.50870 | 19257 ft | 421 kts | 122° |
| 2026-04-14 21:45 | -12.30031 | 44.53381 | 18485 ft | 416 kts | 121° |
| 2026-04-14 21:46 | -12.31577 | 44.55872 | 17631 ft | 412 kts | 121° |
| 2026-04-14 21:46 | -12.33099 | 44.58326 | 16829 ft | 406 kts | 121° |
| 2026-04-14 21:46 | -12.34601 | 44.60746 | 16064 ft | 400 kts | 121° |
| 2026-04-14 21:46 | -12.36083 | 44.63137 | 15310 ft | 395 kts | 121° |
| 2026-04-14 21:47 | -12.37543 | 44.65491 | 14565 ft | 390 kts | 121° |
| 2026-04-14 21:47 | -12.38986 | 44.67821 | 13816 ft | 386 kts | 121° |
| 2026-04-14 21:47 | -12.40418 | 44.70131 | 12997 ft | 382 kts | 121° |
| 2026-04-14 21:47 | -12.41831 | 44.72411 | 12237 ft | 377 kts | 121° |
| 2026-04-14 21:48 | -12.43224 | 44.74662 | 11500 ft | 372 kts | 121° |
| 2026-04-14 21:48 | -12.44599 | 44.76881 | 10772 ft | 367 kts | 121° |
| 2026-04-14 21:48 | -12.45946 | 44.79057 | 10467 ft | 352 kts | 121° |
| 2026-04-14 21:48 | -12.47227 | 44.81125 | 10253 ft | 335 kts | 121° |
| 2026-04-14 21:49 | -12.48443 | 44.83089 | 10104 ft | 319 kts | 121° |
| 2026-04-14 21:49 | -12.49586 | 44.84937 | 9942 ft | 305 kts | 121° |
| 2026-04-14 21:49 | -12.50691 | 44.86722 | 9880 ft | 288 kts | 121° |
| 2026-04-14 21:49 | -12.51776 | 44.88479 | 9163 ft | 296 kts | 121° |
| 2026-04-14 21:50 | -12.52877 | 44.90261 | 8630 ft | 296 kts | 121° |
| 2026-04-14 21:50 | -12.53974 | 44.92037 | 8171 ft | 294 kts | 121° |
| 2026-04-14 21:50 | -12.55066 | 44.93804 | 7699 ft | 293 kts | 121° |
| 2026-04-14 21:50 | -12.56136 | 44.95536 | 7249 ft | 283 kts | 121° |
| 2026-04-14 21:51 | -12.57168 | 44.97205 | 6838 ft | 274 kts | 121° |
| 2026-04-14 21:51 | -12.58183 | 44.98850 | 6447 ft | 273 kts | 121° |
| 2026-04-14 21:51 | -12.59197 | 45.00493 | 6014 ft | 273 kts | 122° |
| 2026-04-14 21:51 | -12.60211 | 45.02135 | 5610 ft | 272 kts | 122° |
| 2026-04-14 21:52 | -12.61198 | 45.03733 | 5462 ft | 261 kts | 122° |
| 2026-04-14 21:52 | -12.62147 | 45.05270 | 5344 ft | 250 kts | 122° |
| 2026-04-14 21:52 | -12.63048 | 45.06750 | 5218 ft | 240 kts | 118° |
| 2026-04-14 21:52 | -12.63431 | 45.08356 | 5115 ft | 231 kts | 89° |
| 2026-04-14 21:53 | -12.63097 | 45.09922 | 5022 ft | 223 kts | 67° |
| 2026-04-14 21:53 | -12.62362 | 45.11282 | 4934 ft | 213 kts | 62° |
| 2026-04-14 21:53 | -12.61624 | 45.12558 | 4756 ft | 210 kts | 62° |
| 2026-04-14 21:53 | -12.60893 | 45.13833 | 4549 ft | 206 kts | 65° |
| 2026-04-14 21:54 | -12.60644 | 45.15224 | 4328 ft | 199 kts | 104° |
| 2026-04-14 21:54 | -12.61294 | 45.16441 | 4135 ft | 196 kts | 136° |
| 2026-04-14 21:54 | -12.62372 | 45.17231 | 3934 ft | 187 kts | 150° |
| 2026-04-14 21:54 | -12.63486 | 45.17883 | 3689 ft | 181 kts | 151° |
| 2026-04-14 21:55 | -12.64561 | 45.18514 | 3475 ft | 176 kts | 151° |
| 2026-04-14 21:55 | -12.65265 | 45.18927 | 3335 ft | 176 kts | 151° |
| 2026-04-14 21:55 | -12.66694 | 45.19769 | 3047 ft | 179 kts | 151° |
| 2026-04-14 21:55 | -12.67764 | 45.20400 | 2800 ft | 175 kts | 151° |
| 2026-04-14 21:56 | -12.68453 | 45.20809 | 2666 ft | 171 kts | 151° |
| 2026-04-14 21:56 | -12.69463 | 45.21406 | 2425 ft | 165 kts | 151° |
| 2026-04-14 21:56 | -12.70436 | 45.21984 | 2210 ft | 157 kts | 152° |
| 2026-04-14 21:56 | -12.71355 | 45.22529 | 2015 ft | 148 kts | 151° |
| 2026-04-14 21:57 | -12.72304 | 45.23090 | 1945 ft | 182 kts | 151° |
| 2026-04-14 21:57 | -12.73423 | 45.23754 | 2152 ft | 169 kts | 151° |
| 2026-04-14 21:57 | -12.74347 | 45.24319 | 1972 ft | 145 kts | 149° |
| 2026-04-14 21:57 | -12.75198 | 45.24857 | 1614 ft | 142 kts | 150° |
| 2026-04-14 21:58 | -12.76045 | 45.25363 | 1284 ft | 139 kts | 152° |
| 2026-04-14 21:58 | -12.76879 | 45.25840 | 961 ft | 135 kts | 153° |
| 2026-04-14 21:58 | -12.77688 | 45.26301 | 700 ft | 136 kts | 152° |
| 2026-04-14 21:58 | -12.78508 | 45.26771 | 549 ft | 134 kts | 151° |
| 2026-04-14 21:59 | -12.79327 | 45.27255 | 370 ft | 137 kts | 149° |
| 2026-04-14 21:59 | -12.80138 | 45.27744 | 116 ft | 132 kts | 151° |
| 2026-04-14 21:59 | -12.80872 | 45.28176 | 46 ft | 101 kts | 150° |
| 2026-04-14 21:59 | -12.81290 | 45.28426 | 63 ft | 43 kts | 149° |
| 2026-04-14 22:00 | -12.81508 | 45.28553 | 67 ft | 28 kts | 149° |
| 2026-04-14 22:00 | -12.81645 | 45.28608 | 60 ft | 14 kts | 172° |
| 2026-04-14 22:00 | -12.81641 | 45.28647 | 69 ft | 8 kts | 355° |
| 2026-04-14 22:00 | -12.81596 | 45.28608 | 65 ft | 8 kts | 322° |
| 2026-04-14 22:01 | -12.81547 | 45.28577 | 63 ft | 8 kts | 329° |
| 2026-04-14 22:01 | -12.81495 | 45.28547 | 64 ft | 10 kts | 330° |
| 2026-04-14 22:01 | -12.81427 | 45.28507 | 66 ft | 12 kts | 330° |
| 2026-04-14 22:01 | -12.81358 | 45.28466 | 65 ft | 11 kts | 329° |
| 2026-04-14 22:02 | -12.81290 | 45.28426 | 63 ft | 11 kts | 330° |
| 2026-04-14 22:02 | -12.81224 | 45.28388 | 57 ft | 11 kts | 331° |
| 2026-04-14 22:02 | -12.81156 | 45.28349 | 56 ft | 12 kts | 328° |
| 2026-04-14 22:02 | -12.81071 | 45.28296 | 51 ft | 18 kts | 329° |
| 2026-04-14 22:03 | -12.80952 | 45.28227 | 49 ft | 20 kts | 329° |
| 2026-04-14 22:03 | -12.80830 | 45.28155 | 48 ft | 20 kts | 330° |
| 2026-04-14 22:03 | -12.80712 | 45.28086 | 44 ft | 19 kts | 330° |
| 2026-04-14 22:03 | -12.80597 | 45.28018 | 43 ft | 19 kts | 329° |
| 2026-04-14 22:04 | -12.80483 | 45.27967 | 44 ft | 18 kts | 7° |
| 2026-04-14 22:04 | -12.80429 | 45.28019 | 45 ft | 9 kts | 64° |
| 2026-04-14 22:04 | -12.80408 | 45.28055 | 44 ft | 6 kts | 59° |
| 2026-04-14 22:04 | -12.80388 | 45.28089 | 46 ft | 6 kts | 57° |
| 2026-04-14 22:05 | -12.80356 | 45.28116 | 46 ft | 8 kts | 22° |
| 2026-04-14 22:05 | -12.80302 | 45.28119 | 46 ft | 6 kts | 359° |
| 2026-04-14 22:05 | -12.80272 | 45.28146 | 46 ft | 6 kts | 56° |
| 2026-04-14 22:05 | -12.80262 | 45.28162 | 45 ft | 1 kts | 58° |
| 2026-04-14 22:06 | -12.80261 | 45.28164 | 45 ft | 0 kts | 58° |